CheckWX is a tool to help pilots better visualize weather data.  It is not intended as a substitute for an official pre-flight weather briefing.

04:59:57 UTC

KDZB METAR
Horseshoe Bay Resort Airport
Horseshoe Bay, Texas, USA
Current

23 mins ago

KDZB 180437Z AUTO 16005KT 10SM CLR 24/20 A2995 RMK AO2 LTG DSNT E
Observed
Jun-18 @ 04:37 UTC
Wind
  • 160° at 5 KTS
Visibility
10 SM
Flight Rules
VFR
Cloud Levels
  • Clear skies
Temperature
24°C / 75°F
Dewpoint
20°C / 68°F
Humidity
78%
Altimeter
29.95" Hg
Pressure
1014.22 hPa
Previous

41 mins ago

KDZB 180419Z AUTO 15004KT 10SM CLR 24/20 A2995 RMK AO2
Observed
Jun-18 @ 04:19 UTC
Wind
  • 150° at 4 KTS
Visibility
10 SM
Flight Rules
VFR
Cloud Levels
  • Clear skies
Temperature
24°C / 75°F
Dewpoint
20°C / 68°F
Humidity
78%
Altimeter
29.95" Hg
Pressure
1014.22 hPa
Previous

1 hour ago

KDZB 180357Z AUTO 15003KT 10SM CLR 24/20 A2994 RMK AO2
Observed
Jun-18 @ 03:57 UTC
Wind
  • 150° at 3 KTS
Visibility
10 SM
Flight Rules
VFR
Cloud Levels
  • Clear skies
Temperature
24°C / 75°F
Dewpoint
20°C / 68°F
Humidity
78%
Altimeter
29.94" Hg
Pressure
1013.92 hPa